sensor_id;sensor_type;location;lat;lon;timestamp;P1;P2;P0
30713;PMS7003;17465;47.934;33.430;2024-03-23T00:55:34;72.50;58.25;31.75
30713;PMS7003;17465;47.934;33.430;2024-03-23T00:58:05;72.00;54.50;32.00
30713;PMS7003;17465;47.934;33.430;2024-03-23T01:00:35;71.00;57.00;32.25
30713;PMS7003;17465;47.934;33.430;2024-03-23T01:03:05;69.50;58.25;30.75
30713;PMS7003;17465;47.934;33.430;2024-03-23T01:05:35;74.00;57.00;32.00
30713;PMS7003;17465;47.934;33.430;2024-03-23T01:08:06;70.75;55.75;32.00
30713;PMS7003;17465;47.934;33.430;2024-03-23T01:10:36;70.25;54.75;30.75
30713;PMS7003;17465;47.934;33.430;2024-03-23T01:13:06;70.75;56.25;31.75
30713;PMS7003;17465;47.934;33.430;2024-03-23T01:15:37;75.75;56.50;32.00
30713;PMS7003;17465;47.934;33.430;2024-03-23T01:18:07;78.50;62.00;34.75
30713;PMS7003;17465;47.934;33.430;2024-03-23T01:20:37;75.00;59.00;34.25
30713;PMS7003;17465;47.934;33.430;2024-03-23T01:23:07;76.25;61.25;35.00
30713;PMS7003;17465;47.934;33.430;2024-03-23T01:25:37;74.00;58.25;35.00
30713;PMS7003;17465;47.934;33.430;2024-03-23T01:28:07;71.25;58.50;31.50
30713;PMS7003;17465;47.934;33.430;2024-03-23T01:30:37;66.00;50.50;28.50
30713;PMS7003;17465;47.934;33.430;2024-03-23T01:33:08;72.00;56.50;29.25
30713;PMS7003;17465;47.934;33.430;2024-03-23T01:35:38;76.75;59.50;33.50
30713;PMS7003;17465;47.934;33.430;2024-03-23T01:38:08;67.25;55.00;31.50
30713;PMS7003;17465;47.934;33.430;2024-03-23T01:40:38;68.50;54.75;31.00
30713;PMS7003;17465;47.934;33.430;2024-03-23T01:43:08;70.50;55.75;31.75
30713;PMS7003;17465;47.934;33.430;2024-03-23T01:45:38;68.00;53.50;29.75
30713;PMS7003;17465;47.934;33.430;2024-03-23T01:48:09;68.50;55.50;31.75
30713;PMS7003;17465;47.934;33.430;2024-03-23T01:50:39;68.75;56.00;31.50
30713;PMS7003;17465;47.934;33.430;2024-03-23T01:53:09;73.75;59.25;34.50
30713;PMS7003;17465;47.934;33.430;2024-03-23T01:55:39;68.50;53.25;28.25
30713;PMS7003;17465;47.934;33.430;2024-03-23T01:58:10;66.75;51.75;28.50
30713;PMS7003;17465;47.934;33.430;2024-03-23T02:00:40;64.75;53.75;31.00
30713;PMS7003;17465;47.934;33.430;2024-03-23T02:03:28;75.25;56.50;26.00
30713;PMS7003;17465;47.934;33.430;2024-03-23T02:05:58;60.75;46.25;21.00
30713;PMS7003;17465;47.934;33.430;2024-03-23T02:08:28;65.25;52.50;26.50
30713;PMS7003;17465;47.934;33.430;2024-03-23T02:11:00;58.00;47.25;25.75
30713;PMS7003;17465;47.934;33.430;2024-03-23T02:13:30;65.75;53.25;29.25
30713;PMS7003;17465;47.934;33.430;2024-03-23T02:16:00;62.50;48.50;23.75
30713;PMS7003;17465;47.934;33.430;2024-03-23T02:18:31;60.50;49.75;24.50
30713;PMS7003;17465;47.934;33.430;2024-03-23T02:21:02;57.00;43.75;22.50
30713;PMS7003;17465;47.934;33.430;2024-03-23T02:23:32;67.50;54.00;28.00
30713;PMS7003;17465;47.934;33.430;2024-03-23T02:26:03;69.00;55.00;30.25
30713;PMS7003;17465;47.934;33.430;2024-03-23T02:28:33;63.75;47.75;24.50
30713;PMS7003;17465;47.934;33.430;2024-03-23T02:31:03;60.25;48.75;21.50
30713;PMS7003;17465;47.934;33.430;2024-03-23T02:33:33;59.00;48.75;20.75
30713;PMS7003;17465;47.934;33.430;2024-03-23T02:36:04;64.75;51.50;25.75
30713;PMS7003;17465;47.934;33.430;2024-03-23T02:38:34;63.75;51.50;26.25
30713;PMS7003;17465;47.934;33.430;2024-03-23T02:41:04;63.50;52.00;24.25
30713;PMS7003;17465;47.934;33.430;2024-03-23T02:43:34;61.25;49.75;24.00
30713;PMS7003;17465;47.934;33.430;2024-03-23T02:46:04;49.75;45.00;23.75
30713;PMS7003;17465;47.934;33.430;2024-03-23T02:48:36;63.50;51.00;22.50
30713;PMS7003;17465;47.934;33.430;2024-03-23T02:51:06;69.00;52.00;22.75
30713;PMS7003;17465;47.934;33.430;2024-03-23T02:53:36;67.25;52.00;22.00
30713;PMS7003;17465;47.934;33.430;2024-03-23T02:56:07;65.00;53.25;26.25
30713;PMS7003;17465;47.934;33.430;2024-03-23T02:58:37;63.75;51.75;27.00
30713;PMS7003;17465;47.934;33.430;2024-03-23T03:01:07;69.25;53.75;27.25
30713;PMS7003;17465;47.934;33.430;2024-03-23T03:03:37;69.50;54.75;29.25
30713;PMS7003;17465;47.934;33.430;2024-03-23T03:06:07;64.25;50.25;27.00
30713;PMS7003;17465;47.934;33.430;2024-03-23T03:08:38;65.25;50.50;27.50
30713;PMS7003;17465;47.934;33.430;2024-03-23T03:11:08;69.50;54.00;29.25
30713;PMS7003;17465;47.934;33.430;2024-03-23T03:13:38;59.25;48.75;27.00
30713;PMS7003;17465;47.934;33.430;2024-03-23T03:16:11;60.00;50.50;23.25
30713;PMS7003;17465;47.934;33.430;2024-03-23T03:18:41;64.25;50.50;23.00
30713;PMS7003;17465;47.934;33.430;2024-03-23T03:21:12;72.50;58.25;33.00
30713;PMS7003;17465;47.934;33.430;2024-03-23T03:23:42;61.50;51.50;23.75
30713;PMS7003;17465;47.934;33.430;2024-03-23T03:26:12;75.50;62.00;32.50
30713;PMS7003;17465;47.934;33.430;2024-03-23T03:28:42;76.75;60.75;35.00
30713;PMS7003;17465;47.934;33.430;2024-03-23T03:31:12;66.00;53.50;31.00
30713;PMS7003;17465;47.934;33.430;2024-03-23T03:33:43;82.75;63.25;38.75
30713;PMS7003;17465;47.934;33.430;2024-03-23T03:36:13;78.50;63.50;39.50
30713;PMS7003;17465;47.934;33.430;2024-03-23T03:38:43;81.50;65.00;40.50
30713;PMS7003;17465;47.934;33.430;2024-03-23T03:41:14;82.50;66.75;39.50
30713;PMS7003;17465;47.934;33.430;2024-03-23T03:43:44;78.50;63.75;39.50
30713;PMS7003;17465;47.934;33.430;2024-03-23T03:46:14;99.80;84.80;65.60
30713;PMS7003;17465;47.934;33.430;2024-03-23T03:48:44;108.50;97.00;62.25
30713;PMS7003;17465;47.934;33.430;2024-03-23T03:51:14;104.00;94.00;68.25
30713;PMS7003;17465;47.934;33.430;2024-03-23T03:53:44;107.50;97.50;66.25
30713;PMS7003;17465;47.934;33.430;2024-03-23T03:56:14;101.25;84.50;64.00
30713;PMS7003;17465;47.934;33.430;2024-03-23T03:58:44;116.25;108.00;75.25
30713;PMS7003;17465;47.934;33.430;2024-03-23T04:01:14;98.75;79.75;56.00
30713;PMS7003;17465;47.934;33.430;2024-03-23T04:03:45;109.00;100.00;71.00
30713;PMS7003;17465;47.934;33.430;2024-03-23T04:06:18;92.00;74.00;58.50
30713;PMS7003;17465;47.934;33.430;2024-03-23T04:08:49;103.50;90.50;63.50
30713;PMS7003;17465;47.934;33.430;2024-03-23T04:11:19;106.75;97.00;70.50
30713;PMS7003;17465;47.934;33.430;2024-03-23T04:13:49;105.25;93.00;60.75
30713;PMS7003;17465;47.934;33.430;2024-03-23T04:16:29;94.00;75.75;53.25
30713;PMS7003;17465;47.934;33.430;2024-03-23T04:19:01;97.50;84.00;58.50
30713;PMS7003;17465;47.934;33.430;2024-03-23T04:21:31;101.00;83.50;53.50
30713;PMS7003;17465;47.934;33.430;2024-03-23T04:24:01;89.75;71.25;45.00
30713;PMS7003;17465;47.934;33.430;2024-03-23T04:26:40;79.50;63.00;38.00
30713;PMS7003;17465;47.934;33.430;2024-03-23T04:29:12;83.25;65.00;38.75
30713;PMS7003;17465;47.934;33.430;2024-03-23T04:31:42;84.00;67.50;40.75
30713;PMS7003;17465;47.934;33.430;2024-03-23T04:34:13;77.50;62.25;37.75
30713;PMS7003;17465;47.934;33.430;2024-03-23T04:36:43;71.25;58.25;36.00
30713;PMS7003;17465;47.934;33.430;2024-03-23T04:39:13;66.75;56.00;34.25
30713;PMS7003;17465;47.934;33.430;2024-03-23T04:41:43;74.00;57.00;33.00
30713;PMS7003;17465;47.934;33.430;2024-03-23T04:44:13;71.50;58.00;31.75
30713;PMS7003;17465;47.934;33.430;2024-03-23T04:46:43;63.00;50.75;24.00
30713;PMS7003;17465;47.934;33.430;2024-03-23T04:49:14;62.75;49.00;19.25
30713;PMS7003;17465;47.934;33.430;2024-03-23T04:51:44;61.75;52.50;21.50
30713;PMS7003;17465;47.934;33.430;2024-03-23T04:54:14;69.50;55.75;30.75
30713;PMS7003;17465;47.934;33.430;2024-03-23T04:56:45;72.25;56.75;30.25
30713;PMS7003;17465;47.934;33.430;2024-03-23T04:59:15;71.00;55.25;32.25
30713;PMS7003;17465;47.934;33.430;2024-03-23T05:01:45;69.50;56.75;32.75
30713;PMS7003;17465;47.934;33.430;2024-03-23T05:04:15;70.50;53.25;31.25
30713;PMS7003;17465;47.934;33.430;2024-03-23T05:06:46;73.50;60.50;36.00
30713;PMS7003;17465;47.934;33.430;2024-03-23T05:09:16;77.25;59.00;33.00
30713;PMS7003;17465;47.934;33.430;2024-03-23T05:11:46;76.75;60.75;37.00
30713;PMS7003;17465;47.934;33.430;2024-03-23T05:14:16;68.50;54.25;31.00
30713;PMS7003;17465;47.934;33.430;2024-03-23T05:16:46;70.00;57.50;33.00
30713;PMS7003;17465;47.934;33.430;2024-03-23T05:19:16;66.00;52.00;28.75
30713;PMS7003;17465;47.934;33.430;2024-03-23T05:21:46;65.00;48.50;26.25
30713;PMS7003;17465;47.934;33.430;2024-03-23T05:24:16;66.50;54.25;32.75
30713;PMS7003;17465;47.934;33.430;2024-03-23T05:26:47;65.00;50.50;28.50
30713;PMS7003;17465;47.934;33.430;2024-03-23T05:29:17;65.00;52.25;30.00
30713;PMS7003;17465;47.934;33.430;2024-03-23T05:31:49;72.75;58.50;36.75
30713;PMS7003;17465;47.934;33.430;2024-03-23T05:34:18;78.75;59.50;36.75
30713;PMS7003;17465;47.934;33.430;2024-03-23T05:36:50;71.75;57.25;36.00
30713;PMS7003;17465;47.934;33.430;2024-03-23T05:39:20;66.25;50.00;27.75
30713;PMS7003;17465;47.934;33.430;2024-03-23T05:41:50;46.00;37.75;27.25
30713;PMS7003;17465;47.934;33.430;2024-03-23T05:44:21;65.75;53.50;32.00
30713;PMS7003;17465;47.934;33.430;2024-03-23T05:46:51;60.00;50.25;28.50
30713;PMS7003;17465;47.934;33.430;2024-03-23T05:49:21;62.75;50.75;29.75
30713;PMS7003;17465;47.934;33.430;2024-03-23T05:51:51;58.50;49.00;32.50
30713;PMS7003;17465;47.934;33.430;2024-03-23T05:54:21;146.50;146.00;134.25
30713;PMS7003;17465;47.934;33.430;2024-03-23T05:56:54;59.60;50.20;29.60
30713;PMS7003;17465;47.934;33.430;2024-03-23T05:59:26;52.75;40.75;19.50
30713;PMS7003;17465;47.934;33.430;2024-03-23T06:01:56;61.25;47.50;27.25
30713;PMS7003;17465;47.934;33.430;2024-03-23T06:04:26;51.00;43.00;29.00
30713;PMS7003;17465;47.934;33.430;2024-03-23T06:06:59;61.25;51.00;30.25
30713;PMS7003;17465;47.934;33.430;2024-03-23T06:09:30;53.00;43.25;26.00
30713;PMS7003;17465;47.934;33.430;2024-03-23T06:12:00;56.00;45.50;28.00
30713;PMS7003;17465;47.934;33.430;2024-03-23T06:14:31;46.25;41.25;25.25
30713;PMS7003;17465;47.934;33.430;2024-03-23T06:17:02;54.75;43.50;27.50
30713;PMS7003;17465;47.934;33.430;2024-03-23T06:19:32;51.25;42.75;26.75
30713;PMS7003;17465;47.934;33.430;2024-03-23T06:22:02;46.75;41.00;23.25
30713;PMS7003;17465;47.934;33.430;2024-03-23T06:24:32;55.75;42.75;24.25
30713;PMS7003;17465;47.934;33.430;2024-03-23T06:27:02;47.25;40.75;25.00
30713;PMS7003;17465;47.934;33.430;2024-03-23T06:29:33;41.50;37.00;21.75
30713;PMS7003;17465;47.934;33.430;2024-03-23T06:32:03;49.00;40.00;24.75
30713;PMS7003;17465;47.934;33.430;2024-03-23T06:34:33;51.00;41.75;25.00
30713;PMS7003;17465;47.934;33.430;2024-03-23T06:37:03;44.00;39.50;25.00
30713;PMS7003;17465;47.934;33.430;2024-03-23T06:39:33;44.25;37.25;23.50
30713;PMS7003;17465;47.934;33.430;2024-03-23T06:42:04;39.75;35.75;21.25
30713;PMS7003;17465;47.934;33.430;2024-03-23T06:44:34;42.25;37.00;22.75
30713;PMS7003;17465;47.934;33.430;2024-03-23T06:47:05;43.00;37.75;22.00
30713;PMS7003;17465;47.934;33.430;2024-03-23T06:49:35;41.75;37.00;21.75
30713;PMS7003;17465;47.934;33.430;2024-03-23T06:52:05;37.50;34.75;22.00
30713;PMS7003;17465;47.934;33.430;2024-03-23T06:54:35;42.00;35.75;21.25
30713;PMS7003;17465;47.934;33.430;2024-03-23T06:57:07;43.50;36.50;22.00
30713;PMS7003;17465;47.934;33.430;2024-03-23T06:59:37;39.00;35.50;21.25
30713;PMS7003;17465;47.934;33.430;2024-03-23T07:02:08;45.75;38.50;23.25
30713;PMS7003;17465;47.934;33.430;2024-03-23T07:04:38;42.75;38.00;24.25
30713;PMS7003;17465;47.934;33.430;2024-03-23T07:07:14;39.75;35.75;22.00
30713;PMS7003;17465;47.934;33.430;2024-03-23T07:09:40;38.00;35.75;22.00
30713;PMS7003;17465;47.934;33.430;2024-03-23T07:12:10;42.25;35.00;21.75
30713;PMS7003;17465;47.934;33.430;2024-03-23T07:14:42;46.25;39.00;23.75
30713;PMS7003;17465;47.934;33.430;2024-03-23T07:17:12;44.25;36.75;21.25
30713;PMS7003;17465;47.934;33.430;2024-03-23T07:19:42;38.75;35.75;21.00
30713;PMS7003;17465;47.934;33.430;2024-03-23T07:22:15;40.00;35.25;23.75
30713;PMS7003;17465;47.934;33.430;2024-03-23T07:24:45;40.75;32.75;18.00
30713;PMS7003;17465;47.934;33.430;2024-03-23T07:27:15;34.50;32.00;18.50
30713;PMS7003;17465;47.934;33.430;2024-03-23T07:29:45;36.50;34.25;21.00
30713;PMS7003;17465;47.934;33.430;2024-03-23T07:32:18;38.25;32.00;19.25
30713;PMS7003;17465;47.934;33.430;2024-03-23T07:34:48;40.00;35.00;22.50
30713;PMS7003;17465;47.934;33.430;2024-03-23T07:37:24;40.00;34.00;21.00
30713;PMS7003;17465;47.934;33.430;2024-03-23T07:39:56;35.75;33.75;21.50
30713;PMS7003;17465;47.934;33.430;2024-03-23T07:42:38;38.50;35.00;22.25
30713;PMS7003;17465;47.934;33.430;2024-03-23T07:45:08;37.75;33.75;21.00
30713;PMS7003;17465;47.934;33.430;2024-03-23T07:47:38;28.75;27.50;20.00
30713;PMS7003;17465;47.934;33.430;2024-03-23T07:50:09;39.00;35.00;22.50
30713;PMS7003;17465;47.934;33.430;2024-03-23T07:52:39;36.75;34.00;21.50
30713;PMS7003;17465;47.934;33.430;2024-03-23T07:55:09;37.25;33.25;21.00
30713;PMS7003;17465;47.934;33.430;2024-03-23T07:57:40;38.50;34.00;21.00
30713;PMS7003;17465;47.934;33.430;2024-03-23T08:00:10;44.25;38.00;23.00
30713;PMS7003;17465;47.934;33.430;2024-03-23T08:02:41;39.00;35.00;20.50
30713;PMS7003;17465;47.934;33.430;2024-03-23T08:05:13;41.00;37.25;21.50
30713;PMS7003;17465;47.934;33.430;2024-03-23T08:07:43;40.00;35.25;21.25
30713;PMS7003;17465;47.934;33.430;2024-03-23T08:10:13;40.50;36.50;22.00
30713;PMS7003;17465;47.934;33.430;2024-03-23T08:12:45;35.50;32.25;21.00
30713;PMS7003;17465;47.934;33.430;2024-03-23T08:15:17;37.00;33.50;21.00
30713;PMS7003;17465;47.934;33.430;2024-03-23T08:17:47;42.50;35.50;23.25
30713;PMS7003;17465;47.934;33.430;2024-03-23T08:20:18;43.75;34.50;21.50
30713;PMS7003;17465;47.934;33.430;2024-03-23T08:22:48;25.75;25.75;18.50
30713;PMS7003;17465;47.934;33.430;2024-03-23T08:25:19;42.25;37.00;22.75
30713;PMS7003;17465;47.934;33.430;2024-03-23T08:27:49;40.50;34.25;22.00
30713;PMS7003;17465;47.934;33.430;2024-03-23T08:30:19;41.25;34.50;22.25
30713;PMS7003;17465;47.934;33.430;2024-03-23T08:32:50;36.50;33.00;19.50
30713;PMS7003;17465;47.934;33.430;2024-03-23T08:35:20;42.00;35.50;21.75
30713;PMS7003;17465;47.934;33.430;2024-03-23T08:37:50;37.00;33.25;21.25
30713;PMS7003;17465;47.934;33.430;2024-03-23T08:40:21;35.25;32.50;21.00
30713;PMS7003;17465;47.934;33.430;2024-03-23T08:42:51;37.50;34.00;19.00
30713;PMS7003;17465;47.934;33.430;2024-03-23T08:45:27;46.75;36.25;19.75
30713;PMS7003;17465;47.934;33.430;2024-03-23T08:47:57;42.50;36.00;23.25
30713;PMS7003;17465;47.934;33.430;2024-03-23T08:50:27;45.00;37.50;22.00
30713;PMS7003;17465;47.934;33.430;2024-03-23T08:52:57;37.50;32.25;21.00
30713;PMS7003;17465;47.934;33.430;2024-03-23T08:55:27;37.75;34.50;23.00
30713;PMS7003;17465;47.934;33.430;2024-03-23T08:57:58;40.00;35.75;20.50
30713;PMS7003;17465;47.934;33.430;2024-03-23T09:00:28;37.75;34.50;20.25
30713;PMS7003;17465;47.934;33.430;2024-03-23T09:02:59;39.75;34.00;20.75
30713;PMS7003;17465;47.934;33.430;2024-03-23T09:05:29;37.75;33.00;21.50
30713;PMS7003;17465;47.934;33.430;2024-03-23T09:07:59;36.75;32.75;20.00
30713;PMS7003;17465;47.934;33.430;2024-03-23T09:10:30;45.00;35.00;20.50
30713;PMS7003;17465;47.934;33.430;2024-03-23T09:13:00;44.25;37.25;20.75
30713;PMS7003;17465;47.934;33.430;2024-03-23T09:15:34;39.75;34.50;20.75
30713;PMS7003;17465;47.934;33.430;2024-03-23T09:18:06;41.25;33.25;20.00
30713;PMS7003;17465;47.934;33.430;2024-03-23T09:20:36;37.25;33.00;21.50
30713;PMS7003;17465;47.934;33.430;2024-03-23T09:23:06;33.00;30.25;18.50
30713;PMS7003;17465;47.934;33.430;2024-03-23T09:25:39;35.40;31.00;19.00
30713;PMS7003;17465;47.934;33.430;2024-03-23T09:28:13;35.80;31.80;19.80
30713;PMS7003;17465;47.934;33.430;2024-03-23T09:30:42;32.40;30.00;19.80
30713;PMS7003;17465;47.934;33.430;2024-03-23T09:33:13;34.60;32.20;21.00
30713;PMS7003;17465;47.934;33.430;2024-03-23T09:35:43;37.75;32.25;21.25
30713;PMS7003;17465;47.934;33.430;2024-03-23T09:38:14;30.50;29.00;18.00
30713;PMS7003;17465;47.934;33.430;2024-03-23T09:40:44;26.50;25.00;15.25
30713;PMS7003;17465;47.934;33.430;2024-03-23T09:43:16;33.50;29.75;17.25
30713;PMS7003;17465;47.934;33.430;2024-03-23T09:45:47;32.50;30.00;18.00
30713;PMS7003;17465;47.934;33.430;2024-03-23T09:48:19;31.50;29.00;18.50
30713;PMS7003;17465;47.934;33.430;2024-03-23T09:50:51;35.00;31.50;20.25
30713;PMS7003;17465;47.934;33.430;2024-03-23T09:53:21;33.50;31.50;20.00
30713;PMS7003;17465;47.934;33.430;2024-03-23T09:55:51;31.50;30.00;19.25
30713;PMS7003;17465;47.934;33.430;2024-03-23T09:58:23;35.25;29.50;19.00
30713;PMS7003;17465;47.934;33.430;2024-03-23T10:00:53;34.00;31.00;19.20
30713;PMS7003;17465;47.934;33.430;2024-03-23T10:03:23;33.40;29.00;16.40
30713;PMS7003;17465;47.934;33.430;2024-03-23T10:06:00;38.60;33.40;21.20
30713;PMS7003;17465;47.934;33.430;2024-03-23T10:08:31;46.75;37.75;21.25
30713;PMS7003;17465;47.934;33.430;2024-03-23T10:11:13;32.50;30.25;19.00
30713;PMS7003;17465;47.934;33.430;2024-03-23T10:13:44;36.50;33.00;20.00
30713;PMS7003;17465;47.934;33.430;2024-03-23T10:16:21;37.00;30.60;18.60
30713;PMS7003;17465;47.934;33.430;2024-03-23T10:18:53;34.75;31.75;19.25
30713;PMS7003;17465;47.934;33.430;2024-03-23T10:21:26;30.80;29.40;16.60
30713;PMS7003;17465;47.934;33.430;2024-03-23T10:23:55;31.00;26.80;17.40
30713;PMS7003;17465;47.934;33.430;2024-03-23T10:26:27;33.80;30.80;19.20
30713;PMS7003;17465;47.934;33.430;2024-03-23T10:28:58;36.20;30.80;19.00
30713;PMS7003;17465;47.934;33.430;2024-03-23T10:31:35;29.50;28.25;17.75
30713;PMS7003;17465;47.934;33.430;2024-03-23T10:34:01;32.00;30.25;19.25
30713;PMS7003;17465;47.934;33.430;2024-03-23T10:36:32;40.75;36.00;23.00
30713;PMS7003;17465;47.934;33.430;2024-03-23T10:39:05;43.25;36.00;22.00
30713;PMS7003;17465;47.934;33.430;2024-03-23T10:41:37;32.75;31.25;19.50
30713;PMS7003;17465;47.934;33.430;2024-03-23T10:44:09;38.75;32.25;19.75
30713;PMS7003;17465;47.934;33.430;2024-03-23T10:46:41;35.00;32.00;20.00
30713;PMS7003;17465;47.934;33.430;2024-03-23T10:49:11;38.75;32.00;20.00
30713;PMS7003;17465;47.934;33.430;2024-03-23T10:51:42;33.80;29.80;19.00
30713;PMS7003;17465;47.934;33.430;2024-03-23T10:54:12;36.25;32.00;20.00
30713;PMS7003;17465;47.934;33.430;2024-03-23T10:56:45;36.25;32.00;20.75
30713;PMS7003;17465;47.934;33.430;2024-03-23T10:59:16;33.60;31.00;19.00
30713;PMS7003;17465;47.934;33.430;2024-03-23T11:01:53;41.50;34.25;21.75
30713;PMS7003;17465;47.934;33.430;2024-03-23T11:04:32;31.00;29.00;18.20
30713;PMS7003;17465;47.934;33.430;2024-03-23T11:09:57;39.60;34.20;20.80
30713;PMS7003;17465;47.934;33.430;2024-03-23T11:12:30;33.00;29.80;19.20
30713;PMS7003;17465;47.934;33.430;2024-03-23T11:15:04;36.40;33.20;21.80
30713;PMS7003;17465;47.934;33.430;2024-03-23T11:17:36;39.00;34.60;21.40
30713;PMS7003;17465;47.934;33.430;2024-03-23T11:20:14;36.80;31.60;19.60
30713;PMS7003;17465;47.934;33.430;2024-03-23T11:22:47;35.60;31.60;20.40
30713;PMS7003;17465;47.934;33.430;2024-03-23T11:27:50;30.60;29.00;18.20
30713;PMS7003;17465;47.934;33.430;2024-03-23T11:30:25;39.60;34.20;22.20
30713;PMS7003;17465;47.934;33.430;2024-03-23T11:32:57;30.00;29.00;21.60
30713;PMS7003;17465;47.934;33.430;2024-03-23T11:35:31;32.00;29.60;19.20
30713;PMS7003;17465;47.934;33.430;2024-03-23T11:38:15;34.60;31.00;19.20
30713;PMS7003;17465;47.934;33.430;2024-03-23T11:40:49;34.20;30.40;19.00
30713;PMS7003;17465;47.934;33.430;2024-03-23T11:43:20;30.40;29.40;19.00
30713;PMS7003;17465;47.934;33.430;2024-03-23T11:45:51;32.80;30.00;18.80
30713;PMS7003;17465;47.934;33.430;2024-03-23T11:48:22;31.20;28.80;17.00
30713;PMS7003;17465;47.934;33.430;2024-03-23T11:50:57;29.40;28.40;17.60
30713;PMS7003;17465;47.934;33.430;2024-03-23T11:53:27;31.40;27.20;18.20
30713;PMS7003;17465;47.934;33.430;2024-03-23T11:55:58;29.60;28.60;18.80
30713;PMS7003;17465;47.934;33.430;2024-03-23T11:58:29;32.60;30.20;20.80
30713;PMS7003;17465;47.934;33.430;2024-03-23T12:01:00;27.20;25.60;18.00
30713;PMS7003;17465;47.934;33.430;2024-03-23T12:03:33;24.20;22.60;14.60
30713;PMS7003;17465;47.934;33.430;2024-03-23T12:06:03;27.40;26.20;15.60
30713;PMS7003;17465;47.934;33.430;2024-03-23T12:08:34;25.80;25.80;17.40
30713;PMS7003;17465;47.934;33.430;2024-03-23T12:11:11;26.50;25.50;13.50
30713;PMS7003;17465;47.934;33.430;2024-03-23T12:13:44;30.75;29.75;16.50
30713;PMS7003;17465;47.934;33.430;2024-03-23T12:16:16;26.50;26.50;15.50
30713;PMS7003;17465;47.934;33.430;2024-03-23T12:18:48;30.00;30.00;19.50
30713;PMS7003;17465;47.934;33.430;2024-03-23T12:21:20;28.00;28.00;19.00
30713;PMS7003;17465;47.934;33.430;2024-03-23T12:23:52;35.00;31.50;20.25
30713;PMS7003;17465;47.934;33.430;2024-03-23T12:26:22;28.50;28.50;19.75
30713;PMS7003;17465;47.934;33.430;2024-03-23T12:28:52;37.00;32.25;20.00
30713;PMS7003;17465;47.934;33.430;2024-03-23T12:31:23;27.50;27.00;17.00
30713;PMS7003;17465;47.934;33.430;2024-03-23T12:33:53;27.50;26.50;18.00
30713;PMS7003;17465;47.934;33.430;2024-03-23T12:36:23;26.00;26.00;15.50
30713;PMS7003;17465;47.934;33.430;2024-03-23T12:38:53;27.80;26.40;16.60
30713;PMS7003;17465;47.934;33.430;2024-03-23T12:41:23;22.80;22.40;15.60
30713;PMS7003;17465;47.934;33.430;2024-03-23T12:43:54;27.80;25.00;16.80
30713;PMS7003;17465;47.934;33.430;2024-03-23T12:46:24;25.20;23.20;16.20
30713;PMS7003;17465;47.934;33.430;2024-03-23T12:48:54;25.25;25.25;17.25
30713;PMS7003;17465;47.934;33.430;2024-03-23T12:51:24;27.00;25.50;16.50
30713;PMS7003;17465;47.934;33.430;2024-03-23T12:53:55;23.25;23.00;14.75
30713;PMS7003;17465;47.934;33.430;2024-03-23T12:56:25;28.80;27.80;18.60
30713;PMS7003;17465;47.934;33.430;2024-03-23T12:58:55;15.25;13.75;8.25
30713;PMS7003;17465;47.934;33.430;2024-03-23T13:01:26;28.25;27.25;19.25
30713;PMS7003;17465;47.934;33.430;2024-03-23T13:03:56;23.50;23.50;15.00
30713;PMS7003;17465;47.934;33.430;2024-03-23T13:06:26;23.60;22.00;14.80
30713;PMS7003;17465;47.934;33.430;2024-03-23T13:08:56;23.75;22.75;15.50
30713;PMS7003;17465;47.934;33.430;2024-03-23T13:11:27;25.20;24.60;15.40
30713;PMS7003;17465;47.934;33.430;2024-03-23T13:13:58;22.60;22.60;14.80
30713;PMS7003;17465;47.934;33.430;2024-03-23T13:16:28;20.75;20.75;12.25
30713;PMS7003;17465;47.934;33.430;2024-03-23T13:18:58;23.00;23.00;14.75
30713;PMS7003;17465;47.934;33.430;2024-03-23T13:21:28;23.25;20.75;14.25
30713;PMS7003;17465;47.934;33.430;2024-03-23T13:23:59;24.25;22.75;14.00
30713;PMS7003;17465;47.934;33.430;2024-03-23T13:26:29;28.50;28.25;18.75
30713;PMS7003;17465;47.934;33.430;2024-03-23T13:28:59;28.00;27.25;19.75
30713;PMS7003;17465;47.934;33.430;2024-03-23T13:31:30;27.25;25.75;14.75
30713;PMS7003;17465;47.934;33.430;2024-03-23T13:34:00;29.25;24.75;16.50
30713;PMS7003;17465;47.934;33.430;2024-03-23T13:36:30;23.50;20.75;13.00
30713;PMS7003;17465;47.934;33.430;2024-03-23T13:39:01;24.25;22.75;14.25
30713;PMS7003;17465;47.934;33.430;2024-03-23T13:41:32;24.75;21.75;13.00
30713;PMS7003;17465;47.934;33.430;2024-03-23T13:44:02;26.75;26.00;15.00
30713;PMS7003;17465;47.934;33.430;2024-03-23T13:46:33;22.75;22.00;15.75
30713;PMS7003;17465;47.934;33.430;2024-03-23T13:49:04;21.25;19.75;13.75
30713;PMS7003;17465;47.934;33.430;2024-03-23T13:51:38;35.25;31.25;20.00
30713;PMS7003;17465;47.934;33.430;2024-03-23T13:54:08;25.75;25.75;19.00
30713;PMS7003;17465;47.934;33.430;2024-03-23T13:56:38;28.50;28.50;20.00
30713;PMS7003;17465;47.934;33.430;2024-03-23T13:59:08;24.00;24.00;16.25
30713;PMS7003;17465;47.934;33.430;2024-03-23T14:01:39;23.25;21.50;13.00
30713;PMS7003;17465;47.934;33.430;2024-03-23T14:04:09;23.50;22.50;17.00
30713;PMS7003;17465;47.934;33.430;2024-03-23T14:06:39;28.50;24.25;16.75
30713;PMS7003;17465;47.934;33.430;2024-03-23T14:09:10;28.25;26.00;17.75
30713;PMS7003;17465;47.934;33.430;2024-03-23T14:11:40;29.00;29.00;20.00
30713;PMS7003;17465;47.934;33.430;2024-03-23T14:14:11;29.25;27.25;17.00
30713;PMS7003;17465;47.934;33.430;2024-03-23T14:16:41;25.50;24.25;16.25
30713;PMS7003;17465;47.934;33.430;2024-03-23T14:19:15;35.25;30.00;18.25
30713;PMS7003;17465;47.934;33.430;2024-03-23T14:21:45;26.00;24.25;14.75
30713;PMS7003;17465;47.934;33.430;2024-03-23T14:24:15;22.50;20.50;16.75
30713;PMS7003;17465;47.934;33.430;2024-03-23T14:26:45;25.50;24.50;15.50
30713;PMS7003;17465;47.934;33.430;2024-03-23T14:29:15;22.00;22.00;14.75
30713;PMS7003;17465;47.934;33.430;2024-03-23T14:31:45;27.75;25.50;14.50
30713;PMS7003;17465;47.934;33.430;2024-03-23T14:34:16;28.25;27.25;17.25
30713;PMS7003;17465;47.934;33.430;2024-03-23T14:36:46;23.00;22.75;14.75
30713;PMS7003;17465;47.934;33.430;2024-03-23T14:39:16;27.75;24.50;16.75
30713;PMS7003;17465;47.934;33.430;2024-03-23T14:41:46;27.50;27.50;18.00
30713;PMS7003;17465;47.934;33.430;2024-03-23T14:44:16;25.75;24.75;18.75
30713;PMS7003;17465;47.934;33.430;2024-03-23T14:46:47;26.25;26.25;18.50
30713;PMS7003;17465;47.934;33.430;2024-03-23T14:49:17;26.00;23.75;17.00
30713;PMS7003;17465;47.934;33.430;2024-03-23T14:51:47;28.50;27.50;17.50
30713;PMS7003;17465;47.934;33.430;2024-03-23T14:54:18;34.50;32.00;21.00